Time;durP1;ratioP1;P1;durP2;ratioP2;P2;SDS_P1;SDS_P2;PMS_P1;PMS_P2;Temp;Humidity;BMP_temperature;BMP_pressure;BME280_temperature;BME280_humidity;BME280_pressure;Samples;Min_cycle;Max_cycle;Signal;HPM_P1;HPM_P2
2023/12/12 00:01:10;;;;;;;9.83;3.67;;;;;;;;;;5011910;28;20418;-71
2023/12/12 00:03:36;;;;;;;5.70;3.23;;;;;;;;;;4988599;28;20478;-71
2023/12/12 00:06:02;;;;;;;5.73;3.20;;;;;;;;;;4992245;28;20511;-71
2023/12/12 00:08:28;;;;;;;5.77;3.80;;;;;;;;;;5004267;28;20422;-71
2023/12/12 00:10:54;;;;;;;5.33;3.13;;;;;;;;;;5011749;28;20411;-71
2023/12/12 00:13:20;;;;;;;4.50;2.87;;;;;;;;;;5011793;28;20423;-73
2023/12/12 00:15:48;;;;;;;6.17;4.07;;;;;;;;;;5011708;28;20477;-71
2023/12/12 00:18:14;;;;;;;6.00;3.60;;;;;;;;;;4993921;28;20477;-72
2023/12/12 00:20:40;;;;;;;6.70;3.10;;;;;;;;;;4992031;28;20426;-72
2023/12/12 00:23:06;;;;;;;5.80;3.20;;;;;;;;;;4992420;28;20416;-72
2023/12/12 00:25:32;;;;;;;7.60;3.13;;;;;;;;;;4992199;28;20566;-71
2023/12/12 00:27:58;;;;;;;7.63;3.37;;;;;;;;;;5005346;28;20502;-72
2023/12/12 00:30:25;;;;;;;4.60;3.47;;;;;;;;;;5012108;28;20411;-72
2023/12/12 00:32:51;;;;;;;6.13;2.50;;;;;;;;;;5011941;28;20408;-71
2023/12/12 00:35:17;;;;;;;6.90;2.37;;;;;;;;;;5011718;28;20954;-71
2023/12/12 00:37:43;;;;;;;5.50;2.87;;;;;;;;;;5000586;28;20514;-71
2023/12/12 00:40:10;;;;;;;6.10;3.03;;;;;;;;;;4991998;28;20468;-70
2023/12/12 00:42:36;;;;;;;4.13;2.23;;;;;;;;;;4991629;28;20420;-71
2023/12/12 00:45:02;;;;;;;5.20;2.27;;;;;;;;;;4992111;28;20644;-71
2023/12/12 00:47:30;;;;;;;4.97;2.20;;;;;;;;;;4991455;28;20424;-71
2023/12/12 00:49:55;;;;;;;7.80;2.50;;;;;;;;;;4991843;28;20405;-71
2023/12/12 00:52:23;;;;;;;8.93;3.07;;;;;;;;;;4991810;28;20932;-71
2023/12/12 00:54:49;;;;;;;5.13;2.00;;;;;;;;;;4992028;28;20448;-71
2023/12/12 00:57:15;;;;;;;3.90;2.00;;;;;;;;;;4998757;28;20427;-69
2023/12/12 00:59:41;;;;;;;3.83;1.97;;;;;;;;;;5011294;28;20422;-71
2023/12/12 01:02:07;;;;;;;5.57;2.77;;;;;;;;;;5011214;28;20410;-70
2023/12/12 01:04:36;;;;;;;5.70;2.90;;;;;;;;;;5011217;28;20815;-71
2023/12/12 01:07:02;;;;;;;3.77;1.77;;;;;;;;;;5006060;28;20424;-71
2023/12/12 01:09:28;;;;;;;2.20;1.50;;;;;;;;;;4991539;28;20460;-71
2023/12/12 01:11:54;;;;;;;4.00;2.40;;;;;;;;;;4974014;28;20421;-71
2023/12/12 01:14:20;;;;;;;6.03;2.07;;;;;;;;;;4991353;28;20408;-71
2023/12/12 01:16:46;;;;;;;3.90;1.93;;;;;;;;;;4973568;28;20436;-71
2023/12/12 01:19:12;;;;;;;3.73;2.23;;;;;;;;;;4974022;28;20448;-71
2023/12/12 01:21:38;;;;;;;5.47;2.57;;;;;;;;;;4991717;28;20876;-71
2023/12/12 01:24:04;;;;;;;7.87;4.10;;;;;;;;;;4991627;28;20740;-71
2023/12/12 01:26:30;;;;;;;5.00;2.60;;;;;;;;;;4991280;28;20513;-71
2023/12/12 01:28:56;;;;;;;4.70;2.47;;;;;;;;;;4992593;28;20525;-71
2023/12/12 01:31:22;;;;;;;8.27;2.33;;;;;;;;;;4995098;28;20404;-71
2023/12/12 01:33:49;;;;;;;5.43;2.40;;;;;;;;;;4995090;28;20416;-71
2023/12/12 01:36:15;;;;;;;5.30;4.50;;;;;;;;;;4994762;28;20435;-71
2023/12/12 01:38:41;;;;;;;4.13;1.73;;;;;;;;;;4994622;28;20421;-71
2023/12/12 01:41:07;;;;;;;5.00;1.97;;;;;;;;;;4994976;28;20684;-71
2023/12/12 01:43:33;;;;;;;8.90;2.60;;;;;;;;;;4994893;28;20425;-71
2023/12/12 01:46:00;;;;;;;3.63;1.80;;;;;;;;;;4994685;28;20472;-71
2023/12/12 01:48:27;;;;;;;4.30;1.67;;;;;;;;;;4995507;28;20437;-71
2023/12/12 01:50:53;;;;;;;7.20;1.80;;;;;;;;;;4996462;28;20405;-71
2023/12/12 01:53:21;;;;;;;4.07;2.10;;;;;;;;;;4995540;28;20416;-71
2023/12/12 01:55:48;;;;;;;3.27;2.10;;;;;;;;;;4994661;28;20451;-70
2023/12/12 01:58:14;;;;;;;7.47;2.33;;;;;;;;;;5007096;28;20431;-70
2023/12/12 02:00:41;;;;;;;5.10;2.30;;;;;;;;;;5014059;28;20414;-71
2023/12/12 02:03:07;;;;;;;5.80;2.47;;;;;;;;;;4999624;28;20555;-71
2023/12/12 02:05:34;;;;;;;2.70;1.70;;;;;;;;;;4993950;28;20927;-70
2023/12/12 02:08:00;;;;;;;4.93;2.03;;;;;;;;;;4994167;28;20776;-71
2023/12/12 02:10:26;;;;;;;4.83;2.40;;;;;;;;;;4994978;28;20412;-71
2023/12/12 02:12:53;;;;;;;5.27;2.53;;;;;;;;;;4995231;28;20408;-70
2023/12/12 02:15:19;;;;;;;5.53;2.77;;;;;;;;;;5010675;28;20446;-71
2023/12/12 02:17:45;;;;;;;7.43;2.97;;;;;;;;;;4995363;28;20423;-71
2023/12/12 02:20:12;;;;;;;4.07;2.13;;;;;;;;;;5014030;28;20506;-71
2023/12/12 02:22:38;;;;;;;6.40;1.87;;;;;;;;;;5013943;28;20719;-70
2023/12/12 02:25:04;;;;;;;3.40;1.53;;;;;;;;;;4999928;28;20514;-71
2023/12/12 02:27:30;;;;;;;3.83;2.27;;;;;;;;;;4994053;28;20963;-72
2023/12/12 02:29:56;;;;;;;6.73;2.27;;;;;;;;;;5001005;28;20418;-71
2023/12/12 02:32:22;;;;;;;5.40;2.30;;;;;;;;;;5014233;28;20403;-70
2023/12/12 02:34:48;;;;;;;3.70;1.97;;;;;;;;;;5002082;28;20435;-71
2023/12/12 02:37:14;;;;;;;5.77;3.33;;;;;;;;;;4993710;28;20420;-71
2023/12/12 02:39:41;;;;;;;4.87;2.30;;;;;;;;;;4994079;28;20423;-71
2023/12/12 02:42:07;;;;;;;8.53;3.00;;;;;;;;;;4993273;28;20416;-71
2023/12/12 02:44:33;;;;;;;3.50;2.30;;;;;;;;;;4993688;28;20455;-72
2023/12/12 02:46:59;;;;;;;7.07;2.10;;;;;;;;;;4993537;28;20502;-72
2023/12/12 02:49:25;;;;;;;2.30;1.43;;;;;;;;;;5012438;28;20414;-72
2023/12/12 02:51:51;;;;;;;3.73;2.00;;;;;;;;;;5013090;28;20413;-72
2023/12/12 02:54:17;;;;;;;3.87;1.63;;;;;;;;;;5005581;28;20419;-72
2023/12/12 02:56:43;;;;;;;9.07;2.50;;;;;;;;;;4993300;28;20461;-71
2023/12/12 02:59:09;;;;;;;4.93;2.80;;;;;;;;;;4993335;28;20404;-72
2023/12/12 03:01:35;;;;;;;4.30;2.03;;;;;;;;;;4993353;28;20409;-71
2023/12/12 03:04:01;;;;;;;7.37;2.50;;;;;;;;;;4997612;28;20426;-72
2023/12/12 03:06:27;;;;;;;5.47;2.30;;;;;;;;;;5012402;28;20837;-71
2023/12/12 03:08:53;;;;;;;4.10;1.93;;;;;;;;;;4994670;28;20504;-71
2023/12/12 03:11:19;;;;;;;4.00;2.00;;;;;;;;;;5012422;28;20572;-72
2023/12/12 03:13:45;;;;;;;3.03;2.10;;;;;;;;;;5010473;28;20752;-72
2023/12/12 03:16:10;;;;;;;4.80;1.83;;;;;;;;;;4993003;28;20428;-72
2023/12/12 03:18:36;;;;;;;3.53;2.20;;;;;;;;;;4992861;28;20540;-72
2023/12/12 03:21:02;;;;;;;2.67;2.00;;;;;;;;;;4993178;28;20808;-72
2023/12/12 03:23:28;;;;;;;3.87;1.90;;;;;;;;;;4996612;28;20753;-72
2023/12/12 03:25:54;;;;;;;3.37;1.90;;;;;;;;;;5012449;28;20582;-73
2023/12/12 03:28:20;;;;;;;2.80;2.13;;;;;;;;;;5012299;28;20470;-72
2023/12/12 03:30:46;;;;;;;4.60;1.90;;;;;;;;;;5012671;28;20407;-72
2023/12/12 03:33:12;;;;;;;5.50;2.30;;;;;;;;;;4993640;28;20412;-72
2023/12/12 03:35:38;;;;;;;3.87;2.10;;;;;;;;;;4992635;28;20466;-72
2023/12/12 03:38:04;;;;;;;6.60;2.87;;;;;;;;;;4992501;28;20443;-72
2023/12/12 03:40:30;;;;;;;4.10;2.57;;;;;;;;;;4992716;28;20427;-73
2023/12/12 03:42:56;;;;;;;3.50;2.20;;;;;;;;;;4992656;28;20511;-72
2023/12/12 03:45:22;;;;;;;4.97;2.50;;;;;;;;;;5010426;28;20478;-72
2023/12/12 03:47:48;;;;;;;8.83;2.20;;;;;;;;;;4994014;28;20862;-72
2023/12/12 03:50:14;;;;;;;5.53;2.00;;;;;;;;;;5012485;28;20498;-71
2023/12/12 03:52:40;;;;;;;2.90;1.40;;;;;;;;;;5011775;28;20417;-72
2023/12/12 03:55:07;;;;;;;4.47;2.13;;;;;;;;;;5024288;22;20955;-70
2023/12/12 03:57:33;;;;;;;5.30;2.70;;;;;;;;;;5012746;28;20498;-68
2023/12/12 03:59:59;;;;;;;4.43;2.30;;;;;;;;;;4995176;28;20420;-68
2023/12/12 04:02:24;;;;;;;2.50;1.87;;;;;;;;;;5012813;28;20416;-69
2023/12/12 04:04:51;;;;;;;4.30;2.17;;;;;;;;;;5008283;28;20454;-69
2023/12/12 04:07:19;;;;;;;3.20;1.60;;;;;;;;;;5014603;28;20418;-69
2023/12/12 04:09:45;;;;;;;3.00;1.70;;;;;;;;;;5032479;28;20418;-69
2023/12/12 04:12:11;;;;;;;2.83;1.30;;;;;;;;;;5032595;28;20412;-69
2023/12/12 04:14:37;;;;;;;3.20;1.60;;;;;;;;;;5021513;28;20430;-69
2023/12/12 04:17:03;;;;;;;1.93;1.20;;;;;;;;;;4995255;28;20447;-69
2023/12/12 04:19:29;;;;;;;4.30;1.47;;;;;;;;;;4995443;28;20424;-69
2023/12/12 04:21:55;;;;;;;4.40;1.90;;;;;;;;;;4996983;28;20481;-69
2023/12/12 04:24:21;;;;;;;2.53;1.37;;;;;;;;;;5025074;28;20426;-69
2023/12/12 04:26:50;;;;;;;7.70;1.80;;;;;;;;;;5033456;28;20438;-68
2023/12/12 04:29:16;;;;;;;3.00;1.57;;;;;;;;;;5033897;28;20505;-69
2023/12/12 04:31:42;;;;;;;2.60;1.50;;;;;;;;;;5033331;28;20442;-69
2023/12/12 04:34:09;;;;;;;3.53;2.17;;;;;;;;;;5025821;28;20442;-68
2023/12/12 04:36:35;;;;;;;2.20;1.97;;;;;;;;;;5012899;28;20434;-69
2023/12/12 04:39:01;;;;;;;4.47;1.67;;;;;;;;;;4995799;28;20430;-69
2023/12/12 04:41:27;;;;;;;3.10;1.37;;;;;;;;;;5013330;28;20507;-69
2023/12/12 04:43:53;;;;;;;3.40;1.60;;;;;;;;;;5018501;28;20430;-69
2023/12/12 04:46:20;;;;;;;4.57;1.97;;;;;;;;;;5032305;28;20462;-69
2023/12/12 04:48:46;;;;;;;1.73;1.00;;;;;;;;;;5032267;28;20415;-69
2023/12/12 04:51:12;;;;;;;2.40;1.20;;;;;;;;;;5032242;28;20530;-69
2023/12/12 04:53:38;;;;;;;4.33;1.77;;;;;;;;;;5024339;28;20518;-69
2023/12/12 04:56:05;;;;;;;2.60;1.30;;;;;;;;;;4995517;28;20453;-69
2023/12/12 04:58:31;;;;;;;3.63;1.40;;;;;;;;;;5012922;28;20419;-69
2023/12/12 05:00:57;;;;;;;3.10;1.50;;;;;;;;;;5013985;28;20477;-69
2023/12/12 05:03:23;;;;;;;3.27;1.70;;;;;;;;;;5019507;28;20427;-70
2023/12/12 05:05:49;;;;;;;3.73;0.97;;;;;;;;;;5027157;28;20480;-69
2023/12/12 05:08:15;;;;;;;2.60;1.50;;;;;;;;;;5017250;28;20412;-68
2023/12/12 05:10:41;;;;;;;5.33;1.60;;;;;;;;;;5017043;28;20794;-69
2023/12/12 05:13:07;;;;;;;4.03;1.47;;;;;;;;;;5019874;28;20860;-70
2023/12/12 05:15:33;;;;;;;2.33;1.43;;;;;;;;;;5036271;28;20432;-69
2023/12/12 05:18:00;;;;;;;2.47;1.30;;;;;;;;;;5018017;28;20796;-69
2023/12/12 05:20:26;;;;;;;1.80;0.77;;;;;;;;;;5036431;28;20812;-69
2023/12/12 05:22:52;;;;;;;2.30;0.77;;;;;;;;;;5035295;28;20411;-69
2023/12/12 05:25:18;;;;;;;2.23;1.13;;;;;;;;;;5016385;28;20470;-70
2023/12/12 05:27:44;;;;;;;2.40;0.90;;;;;;;;;;4998696;28;20468;-70
2023/12/12 05:30:12;;;;;;;3.50;1.30;;;;;;;;;;5016123;28;20452;-70
2023/12/12 05:32:39;;;;;;;2.93;1.70;;;;;;;;;;5016103;28;20413;-70
2023/12/12 05:35:07;;;;;;;2.50;1.37;;;;;;;;;;5034208;28;20912;-70
2023/12/12 05:37:33;;;;;;;2.40;1.20;;;;;;;;;;5036036;28;20766;-69
2023/12/12 05:39:59;;;;;;;3.33;1.33;;;;;;;;;;5035878;28;20408;-69
2023/12/12 05:42:26;;;;;;;2.90;1.37;;;;;;;;;;5035719;28;20844;-69
2023/12/12 05:44:52;;;;;;;5.07;2.13;;;;;;;;;;5018675;28;20465;-69
2023/12/12 05:47:18;;;;;;;3.73;1.50;;;;;;;;;;4998805;28;20512;-69
2023/12/12 05:49:44;;;;;;;2.53;1.50;;;;;;;;;;5016789;28;20428;-70
2023/12/12 05:52:10;;;;;;;3.23;2.07;;;;;;;;;;4999155;28;20448;-69
2023/12/12 05:54:36;;;;;;;4.97;2.33;;;;;;;;;;5030347;28;20418;-69
2023/12/12 05:57:03;;;;;;;3.57;2.27;;;;;;;;;;5035271;28;20464;-70
2023/12/12 05:59:31;;;;;;;4.80;2.30;;;;;;;;;;5017370;28;20433;-68
2023/12/12 06:01:57;;;;;;;4.17;2.43;;;;;;;;;;5034640;28;20492;-69
2023/12/12 06:04:22;;;;;;;5.07;3.00;;;;;;;;;;5022323;28;20456;-68
2023/12/12 06:06:48;;;;;;;3.97;1.80;;;;;;;;;;5014475;28;20431;-69
2023/12/12 06:09:16;;;;;;;3.93;1.50;;;;;;;;;;5014798;28;20409;-68
2023/12/12 06:11:43;;;;;;;2.97;1.83;;;;;;;;;;5014905;28;20409;-69
2023/12/12 06:14:09;;;;;;;3.00;1.70;;;;;;;;;;5029167;28;20824;-68
2023/12/12 06:16:35;;;;;;;2.60;1.60;;;;;;;;;;5033344;28;20581;-68
2023/12/12 06:19:04;;;;;;;5.10;1.77;;;;;;;;;;5033861;28;20417;-69
2023/12/12 06:21:32;;;;;;;2.00;1.00;;;;;;;;;;5034273;28;20431;-69
2023/12/12 06:23:58;;;;;;;2.67;1.53;;;;;;;;;;5020748;28;20924;-69
2023/12/12 06:26:26;;;;;;;4.10;2.27;;;;;;;;;;5014803;28;20525;-68
2023/12/12 06:28:52;;;;;;;2.83;1.80;;;;;;;;;;5014359;28;20447;-68
2023/12/12 06:31:18;;;;;;;2.83;2.00;;;;;;;;;;5014370;28;20409;-69
2023/12/12 06:33:44;;;;;;;4.30;2.43;;;;;;;;;;5007589;28;20425;-68
2023/12/12 06:36:10;;;;;;;3.33;2.17;;;;;;;;;;5033962;28;20452;-68
2023/12/12 06:38:36;;;;;;;3.80;2.20;;;;;;;;;;5033900;28;20421;-68
2023/12/12 06:41:03;;;;;;;4.50;2.17;;;;;;;;;;5018269;28;20428;-68
2023/12/12 06:43:29;;;;;;;2.73;1.57;;;;;;;;;;5033101;28;20839;-69
2023/12/12 06:45:55;;;;;;;4.20;2.63;;;;;;;;;;5021935;28;20543;-69
2023/12/12 06:48:21;;;;;;;3.93;2.30;;;;;;;;;;4998428;28;20790;-69
2023/12/12 06:50:47;;;;;;;3.57;2.30;;;;;;;;;;5015591;28;20413;-68
2023/12/12 06:53:13;;;;;;;3.50;2.00;;;;;;;;;;5023190;28;20478;-69
2023/12/12 06:55:39;;;;;;;4.37;2.43;;;;;;;;;;5035395;28;20810;-68
2023/12/12 06:58:05;;;;;;;2.97;2.20;;;;;;;;;;5034095;28;20505;-68
2023/12/12 07:00:31;;;;;;;2.90;1.97;;;;;;;;;;5016858;28;20437;-68
2023/12/12 07:02:57;;;;;;;2.60;1.50;;;;;;;;;;5028473;28;20926;-68
2023/12/12 07:05:23;;;;;;;3.87;1.73;;;;;;;;;;5013960;28;20466;-68
2023/12/12 07:07:49;;;;;;;2.47;1.23;;;;;;;;;;5014299;28;20415;-68
2023/12/12 07:10:16;;;;;;;2.40;1.10;;;;;;;;;;4996675;28;20418;-68
2023/12/12 07:12:43;;;;;;;2.87;1.67;;;;;;;;;;5016801;28;20414;-68
2023/12/12 07:15:09;;;;;;;1.90;0.90;;;;;;;;;;5033262;28;20484;-67
2023/12/12 07:17:35;;;;;;;2.77;2.07;;;;;;;;;;5032979;28;20455;-67
2023/12/12 07:20:01;;;;;;;3.87;2.00;;;;;;;;;;5033122;28;20490;-68
2023/12/12 07:22:27;;;;;;;3.80;1.90;;;;;;;;;;5032756;28;20433;-68
2023/12/12 07:24:53;;;;;;;4.73;2.07;;;;;;;;;;5013950;28;20945;-68
2023/12/12 07:27:19;;;;;;;2.60;1.53;;;;;;;;;;4995246;28;20425;-70
2023/12/12 07:29:45;;;;;;;2.40;1.43;;;;;;;;;;5013655;28;20407;-70
2023/12/12 07:32:10;;;;;;;2.93;1.37;;;;;;;;;;5013530;28;20411;-68
2023/12/12 07:34:36;;;;;;;3.27;1.90;;;;;;;;;;5031249;28;20465;-69
2023/12/12 07:37:06;;;;;;;7.63;4.57;;;;;;;;;;5032733;28;20418;-69
2023/12/12 07:39:32;;;;;;;7.53;4.67;;;;;;;;;;5033109;28;20411;-67
2023/12/12 07:41:58;;;;;;;5.70;3.80;;;;;;;;;;5032498;28;20927;-67
2023/12/12 07:44:24;;;;;;;5.07;3.30;;;;;;;;;;4998546;28;20426;-69
2023/12/12 07:46:50;;;;;;;8.77;4.97;;;;;;;;;;5012591;28;20481;-67
2023/12/12 07:49:16;;;;;;;8.83;5.10;;;;;;;;;;5012881;28;20451;-68
2023/12/12 07:51:42;;;;;;;6.93;4.43;;;;;;;;;;5013132;28;20411;-68
2023/12/12 07:54:08;;;;;;;9.07;4.03;;;;;;;;;;5026823;28;20453;-69
2023/12/12 07:56:35;;;;;;;6.50;4.57;;;;;;;;;;5032490;28;20481;-69
2023/12/12 07:59:01;;;;;;;7.57;4.60;;;;;;;;;;5032476;28;20410;-68
2023/12/12 08:01:27;;;;;;;7.77;5.30;;;;;;;;;;5019514;28;20419;-69
2023/12/12 08:03:53;;;;;;;10.53;5.10;;;;;;;;;;5012970;28;20608;-69
2023/12/12 08:06:19;;;;;;;11.93;6.10;;;;;;;;;;4995338;28;20838;-70
2023/12/12 08:08:45;;;;;;;8.10;4.17;;;;;;;;;;5009123;28;20431;-69
2023/12/12 08:11:15;;;;;;;9.47;5.40;;;;;;;;;;5009765;28;20426;-70
2023/12/12 08:13:41;;;;;;;12.10;6.80;;;;;;;;;;4989139;28;20768;-68
2023/12/12 08:16:07;;;;;;;6.20;5.40;;;;;;;;;;4972207;28;20451;-68
2023/12/12 08:18:33;;;;;;;10.47;5.63;;;;;;;;;;4988985;28;20439;-67
2023/12/12 08:20:59;;;;;;;7.20;5.17;;;;;;;;;;4989357;28;20421;-67
2023/12/12 08:23:27;;;;;;;13.47;6.30;;;;;;;;;;5011277;28;20519;-69
2023/12/12 08:25:53;;;;;;;6.40;4.10;;;;;;;;;;5026579;28;20476;-70
2023/12/12 08:28:19;;;;;;;3.60;2.57;;;;;;;;;;4993396;28;20443;-68
2023/12/12 08:30:45;;;;;;;3.60;2.23;;;;;;;;;;4996815;28;20431;-68
2023/12/12 08:33:11;;;;;;;2.10;1.30;;;;;;;;;;5016853;28;20793;-69
2023/12/12 08:35:37;;;;;;;1.90;1.00;;;;;;;;;;5006500;28;21003;-69
2023/12/12 08:38:03;;;;;;;2.07;1.00;;;;;;;;;;5023496;28;20492;-68
2023/12/12 08:40:29;;;;;;;1.90;0.90;;;;;;;;;;5022781;28;20484;-68
2023/12/12 08:42:56;;;;;;;2.27;0.70;;;;;;;;;;5015450;28;20429;-69
2023/12/12 08:45:22;;;;;;;1.90;0.80;;;;;;;;;;5001528;28;20485;-71
2023/12/12 08:47:48;;;;;;;4.23;0.97;;;;;;;;;;4994854;28;20423;-67
2023/12/12 08:50:15;;;;;;;2.17;0.73;;;;;;;;;;4999305;28;20446;-68
2023/12/12 08:52:40;;;;;;;1.80;0.80;;;;;;;;;;5016712;28;20419;-68
2023/12/12 08:55:09;;;;;;;1.70;0.63;;;;;;;;;;5015872;28;20454;-68
2023/12/12 08:57:35;;;;;;;2.00;0.70;;;;;;;;;;5016112;28;20411;-68
2023/12/12 09:00:02;;;;;;;2.80;1.20;;;;;;;;;;5016958;28;20419;-68
2023/12/12 09:02:28;;;;;;;1.70;0.70;;;;;;;;;;5020829;28;20418;-69
2023/12/12 09:04:54;;;;;;;1.97;0.97;;;;;;;;;;5042392;28;20552;-68
2023/12/12 09:07:20;;;;;;;2.27;0.73;;;;;;;;;;5020849;28;20516;-68
2023/12/12 09:09:46;;;;;;;1.80;0.80;;;;;;;;;;5036869;28;20410;-68
2023/12/12 09:12:12;;;;;;;2.30;0.67;;;;;;;;;;5037126;28;20904;-69
2023/12/12 09:14:38;;;;;;;1.77;0.73;;;;;;;;;;5036471;28;20456;-68
2023/12/12 09:17:04;;;;;;;1.50;0.60;;;;;;;;;;5035696;28;20417;-68
2023/12/12 09:19:31;;;;;;;1.70;0.70;;;;;;;;;;5036034;28;20437;-68
2023/12/12 09:21:57;;;;;;;2.43;0.93;;;;;;;;;;5036411;28;20410;-68
2023/12/12 09:24:23;;;;;;;1.90;0.93;;;;;;;;;;5036513;28;20985;-69
2023/12/12 09:26:49;;;;;;;1.97;0.80;;;;;;;;;;5035904;28;20437;-68
2023/12/12 09:29:15;;;;;;;2.47;0.83;;;;;;;;;;5035406;28;20916;-69
2023/12/12 09:31:41;;;;;;;2.50;0.90;;;;;;;;;;5036097;28;20445;-69
2023/12/12 09:34:08;;;;;;;8.23;4.70;;;;;;;;;;5036311;28;20835;-69
2023/12/12 09:36:34;;;;;;;14.67;6.33;;;;;;;;;;5035204;28;20426;-69
2023/12/12 09:39:00;;;;;;;9.93;6.23;;;;;;;;;;5017343;28;20462;-69
2023/12/12 09:41:26;;;;;;;9.13;6.00;;;;;;;;;;5035509;28;20413;-69
2023/12/12 09:43:52;;;;;;;7.40;4.77;;;;;;;;;;5035152;28;20410;-69
2023/12/12 09:46:20;;;;;;;9.73;5.07;;;;;;;;;;5017307;28;20469;-69
2023/12/12 09:48:48;;;;;;;8.33;4.80;;;;;;;;;;5035018;28;20476;-69
2023/12/12 09:51:16;;;;;;;5.30;3.80;;;;;;;;;;5034744;28;20430;-68
2023/12/12 09:53:46;;;;;;;8.20;4.50;;;;;;;;;;5035102;28;20418;-70
2023/12/12 09:56:14;;;;;;;6.57;4.87;;;;;;;;;;5030346;23;20940;-69
2023/12/12 09:58:40;;;;;;;7.30;4.53;;;;;;;;;;5014013;28;20425;-70
2023/12/12 10:01:07;;;;;;;10.70;4.43;;;;;;;;;;4996427;28;20450;-70
2023/12/12 10:03:34;;;;;;;5.77;3.30;;;;;;;;;;5013772;28;20449;-70
2023/12/12 10:06:03;;;;;;;8.23;4.93;;;;;;;;;;5013976;28;20494;-70
2023/12/12 10:08:29;;;;;;;12.00;5.03;;;;;;;;;;5013790;28;20418;-69
2023/12/12 10:10:55;;;;;;;7.33;4.67;;;;;;;;;;5013973;28;20418;-70
2023/12/12 10:13:22;;;;;;;12.20;4.60;;;;;;;;;;5013874;28;20685;-70
2023/12/12 10:15:48;;;;;;;8.13;5.60;;;;;;;;;;5013734;28;20438;-69
2023/12/12 10:18:14;;;;;;;5.63;4.60;;;;;;;;;;5013533;28;20407;-69
2023/12/12 10:20:40;;;;;;;9.30;5.90;;;;;;;;;;5014001;28;20421;-69
2023/12/12 10:23:06;;;;;;;7.20;4.73;;;;;;;;;;4996263;28;20437;-71
2023/12/12 10:25:33;;;;;;;5.70;4.63;;;;;;;;;;5013522;28;21102;-72
2023/12/12 10:27:59;;;;;;;10.93;5.63;;;;;;;;;;5013511;28;20425;-71
2023/12/12 10:30:26;;;;;;;13.40;8.43;;;;;;;;;;5013675;28;20408;-71
2023/12/12 10:32:53;;;;;;;13.73;10.70;;;;;;;;;;5013560;28;20597;-70
2023/12/12 10:35:27;;;;;;;15.17;7.97;;;;;;;;;;5013602;28;20425;-71
2023/12/12 10:37:54;;;;;;;8.40;5.60;;;;;;;;;;5013614;28;20404;-70
2023/12/12 10:40:23;;;;;;;8.63;6.10;;;;;;;;;;5013535;28;20426;-70
2023/12/12 10:42:49;;;;;;;9.57;5.10;;;;;;;;;;5013353;28;20754;-70
2023/12/12 10:45:16;;;;;;;10.47;6.57;;;;;;;;;;5013205;28;20885;-69
2023/12/12 10:47:46;;;;;;;9.33;6.27;;;;;;;;;;5013127;28;20422;-70
2023/12/12 10:50:16;;;;;;;8.57;5.60;;;;;;;;;;5013299;28;20411;-69
2023/12/12 10:52:43;;;;;;;8.53;5.40;;;;;;;;;;5013175;28;20410;-68
2023/12/12 10:55:13;;;;;;;8.70;6.87;;;;;;;;;;5013048;28;20417;-69
2023/12/12 10:57:41;;;;;;;11.77;8.37;;;;;;;;;;5013226;28;20453;-69
2023/12/12 11:00:11;;;;;;;10.03;7.50;;;;;;;;;;5007984;28;20426;-69
2023/12/12 11:02:40;;;;;;;12.90;7.80;;;;;;;;;;5010680;28;20419;-69
2023/12/12 11:05:07;;;;;;;9.70;7.80;;;;;;;;;;5010752;28;20468;-69
2023/12/12 11:07:34;;;;;;;7.93;6.47;;;;;;;;;;5011740;28;20414;-69
2023/12/12 11:10:00;;;;;;;7.30;6.03;;;;;;;;;;5013207;28;20580;-69
2023/12/12 11:12:27;;;;;;;5.97;5.17;;;;;;;;;;4995608;28;20502;-70
2023/12/12 11:14:55;;;;;;;8.37;5.47;;;;;;;;;;5013107;28;20423;-69
2023/12/12 11:17:21;;;;;;;8.00;4.60;;;;;;;;;;5012505;28;20430;-68
2023/12/12 11:19:47;;;;;;;4.50;3.70;;;;;;;;;;5012885;28;20446;-68
2023/12/12 11:22:33;;;;;;;4.10;3.20;;;;;;;;;;5012966;28;20411;-69
2023/12/12 11:25:01;;;;;;;6.10;3.73;;;;;;;;;;5012734;28;20454;-69
2023/12/12 11:27:26;;;;;;;4.97;3.10;;;;;;;;;;5013055;28;20438;-71
2023/12/12 11:29:54;;;;;;;6.73;3.50;;;;;;;;;;5013073;28;20411;-70
2023/12/12 11:32:24;;;;;;;4.57;3.00;;;;;;;;;;5012894;28;20447;-70
2023/12/12 11:34:50;;;;;;;6.07;3.20;;;;;;;;;;5012664;28;20749;-69
2023/12/12 11:37:16;;;;;;;4.97;2.47;;;;;;;;;;5012058;28;20525;-70
2023/12/12 11:39:42;;;;;;;4.10;1.70;;;;;;;;;;5012597;28;20472;-70
2023/12/12 11:42:18;;;;;;;3.50;2.13;;;;;;;;;;5012462;28;20419;-70
2023/12/12 11:44:49;;;;;;;1.97;1.03;;;;;;;;;;5012414;28;20406;-69
2023/12/12 11:47:15;;;;;;;2.40;1.10;;;;;;;;;;5012217;28;20435;-70
2023/12/12 11:49:43;;;;;;;2.73;1.20;;;;;;;;;;5012678;28;20436;-69
2023/12/12 11:52:09;;;;;;;3.50;1.53;;;;;;;;;;5012303;28;20417;-70
2023/12/12 11:54:37;;;;;;;2.00;1.00;;;;;;;;;;5012366;28;20565;-69
2023/12/12 11:57:03;;;;;;;2.43;1.57;;;;;;;;;;5011922;28;20661;-69
2023/12/12 11:59:32;;;;;;;1.90;1.30;;;;;;;;;;4994423;28;20422;-69
2023/12/12 12:01:58;;;;;;;2.00;1.00;;;;;;;;;;5012598;28;20411;-69
2023/12/12 12:04:24;;;;;;;2.37;1.87;;;;;;;;;;5012109;28;20819;-69
2023/12/12 12:06:50;;;;;;;4.10;2.30;;;;;;;;;;5011689;28;20548;-70
2023/12/12 12:09:16;;;;;;;3.27;1.50;;;;;;;;;;5012375;28;20420;-69
2023/12/12 12:11:47;;;;;;;4.63;1.10;;;;;;;;;;5011929;28;20410;-70
2023/12/12 12:14:14;;;;;;;2.67;1.47;;;;;;;;;;5011967;28;20443;-70
2023/12/12 12:16:40;;;;;;;1.90;1.00;;;;;;;;;;5011959;28;20929;-69
2023/12/12 12:19:25;;;;;;;1.70;0.77;;;;;;;;;;5011641;28;20925;-69
2023/12/12 12:21:51;;;;;;;2.37;1.07;;;;;;;;;;5011926;28;20441;-70
2023/12/12 12:24:17;;;;;;;2.20;1.10;;;;;;;;;;5011911;28;20449;-69
2023/12/12 12:26:43;;;;;;;3.20;1.37;;;;;;;;;;5011726;28;20467;-70
2023/12/12 12:29:09;;;;;;;1.70;0.70;;;;;;;;;;5011959;28;20419;-70
2023/12/12 12:31:38;;;;;;;2.80;1.00;;;;;;;;;;5012478;28;20498;-70
2023/12/12 12:34:04;;;;;;;3.37;1.70;;;;;;;;;;5011855;28;20493;-70
2023/12/12 12:36:37;;;;;;;5.10;1.50;;;;;;;;;;5011947;28;20946;-69
2023/12/12 12:39:09;;;;;;;3.20;1.27;;;;;;;;;;4994035;28;20423;-69
2023/12/12 12:41:35;;;;;;;3.40;1.63;;;;;;;;;;5011814;28;20426;-70
2023/12/12 12:44:01;;;;;;;2.13;1.13;;;;;;;;;;5011642;28;20418;-69
2023/12/12 12:46:27;;;;;;;1.90;0.83;;;;;;;;;;5011643;28;20821;-69
2023/12/12 12:48:53;;;;;;;1.97;0.70;;;;;;;;;;4994033;28;20442;-70
2023/12/12 12:51:19;;;;;;;1.70;0.80;;;;;;;;;;5011797;28;20408;-70
2023/12/12 12:53:45;;;;;;;1.80;0.80;;;;;;;;;;5011585;28;20492;-70
2023/12/12 12:56:11;;;;;;;2.23;1.20;;;;;;;;;;5011605;28;20873;-70
2023/12/12 12:58:37;;;;;;;4.33;1.50;;;;;;;;;;5011341;28;20422;-69
2023/12/12 13:01:04;;;;;;;2.33;0.83;;;;;;;;;;4993931;28;20910;-69
2023/12/12 13:03:31;;;;;;;1.53;0.60;;;;;;;;;;5011533;28;20422;-70
2023/12/12 13:05:57;;;;;;;2.10;1.00;;;;;;;;;;5011323;28;20805;-71
2023/12/12 13:08:23;;;;;;;1.70;0.67;;;;;;;;;;5011263;28;20422;-69
2023/12/12 13:10:49;;;;;;;2.20;1.00;;;;;;;;;;4993604;28;20423;-70
2023/12/12 13:13:14;;;;;;;3.30;1.13;;;;;;;;;;5011167;28;20424;-69
2023/12/12 13:15:40;;;;;;;3.43;1.70;;;;;;;;;;5011328;28;20446;-70
2023/12/12 13:18:06;;;;;;;3.00;1.10;;;;;;;;;;5011356;28;20491;-70
2023/12/12 13:20:32;;;;;;;2.23;0.90;;;;;;;;;;5011891;28;20456;-71
2023/12/12 13:22:58;;;;;;;2.30;1.40;;;;;;;;;;5011693;28;20477;-71
2023/12/12 13:25:24;;;;;;;2.23;1.20;;;;;;;;;;5012473;28;20469;-71
2023/12/12 13:27:50;;;;;;;1.90;1.13;;;;;;;;;;5014929;28;20900;-70
2023/12/12 13:30:16;;;;;;;2.83;1.00;;;;;;;;;;5015053;28;20893;-70
2023/12/12 13:32:43;;;;;;;1.60;0.60;;;;;;;;;;5014964;28;20485;-70
2023/12/12 13:35:10;;;;;;;5.63;2.50;;;;;;;;;;5014892;28;20448;-69
2023/12/12 13:37:37;;;;;;;4.53;1.60;;;;;;;;;;5014549;28;20419;-70
2023/12/12 13:40:05;;;;;;;3.77;1.40;;;;;;;;;;5014728;28;20426;-70
2023/12/12 13:42:31;;;;;;;3.27;1.03;;;;;;;;;;5014749;28;20419;-69
2023/12/12 13:44:57;;;;;;;2.47;1.13;;;;;;;;;;5014606;28;20468;-69
2023/12/12 13:47:27;;;;;;;1.80;0.70;;;;;;;;;;5014570;28;20439;-69
2023/12/12 13:49:53;;;;;;;2.47;1.00;;;;;;;;;;5014651;28;20411;-70
2023/12/12 13:52:19;;;;;;;2.37;1.20;;;;;;;;;;5014643;28;20413;-70
2023/12/12 13:54:45;;;;;;;2.73;1.10;;;;;;;;;;5014428;28;20466;-70
2023/12/12 13:57:11;;;;;;;3.20;1.33;;;;;;;;;;5014100;28;20824;-70
2023/12/12 13:59:37;;;;;;;2.30;1.17;;;;;;;;;;5014349;28;20419;-70
2023/12/12 14:02:03;;;;;;;3.80;1.47;;;;;;;;;;5014501;28;20414;-69
2023/12/12 14:04:29;;;;;;;2.60;1.30;;;;;;;;;;5014416;28;20905;-70
2023/12/12 14:06:55;;;;;;;2.53;1.03;;;;;;;;;;4996253;28;20883;-70
2023/12/12 14:09:21;;;;;;;2.17;1.03;;;;;;;;;;5014103;28;20410;-70
2023/12/12 14:11:50;;;;;;;5.00;3.53;;;;;;;;;;5014377;28;20407;-69
2023/12/12 14:14:16;;;;;;;3.80;2.77;;;;;;;;;;5014375;28;20467;-69
2023/12/12 14:16:42;;;;;;;2.87;1.67;;;;;;;;;;4996601;28;20444;-69
2023/12/12 14:19:08;;;;;;;3.30;2.13;;;;;;;;;;5014087;28;20419;-69
2023/12/12 14:21:34;;;;;;;3.33;1.83;;;;;;;;;;4996581;28;20448;-69
2023/12/12 14:24:00;;;;;;;6.57;2.10;;;;;;;;;;5013831;28;20421;-70
2023/12/12 14:26:26;;;;;;;3.60;1.97;;;;;;;;;;5013935;28;20468;-70
2023/12/12 14:28:52;;;;;;;3.40;1.90;;;;;;;;;;5013736;28;20412;-70
2023/12/12 14:31:18;;;;;;;4.53;2.50;;;;;;;;;;5014005;28;20514;-69
2023/12/12 14:33:45;;;;;;;8.00;2.60;;;;;;;;;;5013825;28;20411;-69
2023/12/12 14:36:11;;;;;;;7.10;2.17;;;;;;;;;;5013497;28;20778;-70
2023/12/12 14:38:37;;;;;;;3.13;1.70;;;;;;;;;;4995164;28;20429;-69